ONT weather

Ontario International Airport
Ontario, California, United States

Public forecast

Using degrees Fahrenheit for public forecast. Weather courtesy of forecast.io.

Current aviation weather report (METAR) for Ontario International Airport

Retrieved 2019/10/20 00:53 UTC (56 minutes ago):

KONT 200053Z 23009KT 10SM SCT250 24/11 A2985 RMK AO2 SLP099 T02390111

Aviation forecast (TAF) for Ontario International Airport

Retrieved 2019-10-20 00:27 UTC (1 hour ago):

TAF KONT 192324Z 2000/2106 26010KT P6SM SKC FM200300 VRB04KT P6SM SKC FM201800 VRB04KT P6SM SKC WS015/05025KT FM202100 06012G20KT P6SM SKC FM210400 06008KT P6SM SKC